createdAt,value
2019-06-01T00:01:29.480Z,14.00
2019-06-01T00:06:32.822Z,14.00
2019-06-01T00:11:34.554Z,14.00
2019-06-01T00:16:37.332Z,13.90
2019-06-01T00:21:38.616Z,13.80
2019-06-01T00:26:43.625Z,13.80
2019-06-01T00:31:45.336Z,13.70
2019-06-01T00:36:47.827Z,13.70
2019-06-01T00:41:52.404Z,13.60
2019-06-01T00:46:54.423Z,13.60
2019-06-01T00:51:55.760Z,13.50
2019-06-01T00:56:57.015Z,13.50
2019-06-01T01:02:00.246Z,13.50
2019-06-01T01:07:01.905Z,13.40
2019-06-01T01:12:03.397Z,13.40
2019-06-01T01:17:04.808Z,13.40
2019-06-01T01:22:06.206Z,13.40
2019-06-01T01:27:07.611Z,13.30
2019-06-01T01:32:09.087Z,13.30
2019-06-01T01:37:11.001Z,13.30
2019-06-01T01:42:12.378Z,13.30
2019-06-01T01:47:14.443Z,13.20
2019-06-01T01:52:16.947Z,13.20
2019-06-01T01:57:18.225Z,13.20
2019-06-01T02:02:19.488Z,13.20
2019-06-01T02:07:20.779Z,13.10
2019-06-01T02:12:22.061Z,13.10
2019-06-01T02:17:23.420Z,13.10
2019-06-01T02:22:24.759Z,13.00
2019-06-01T02:27:26.122Z,13.00
2019-06-01T02:32:27.455Z,13.00
2019-06-01T02:37:28.751Z,13.00
2019-06-01T02:42:30.038Z,13.00
2019-06-01T02:47:31.661Z,12.90
2019-06-01T02:52:33.028Z,12.90
2019-06-01T02:57:34.424Z,12.90
2019-06-01T03:02:36.466Z,12.90
2019-06-01T03:07:41.239Z,12.80
2019-06-01T03:12:44.033Z,12.80
2019-06-01T03:17:49.961Z,12.70
2019-06-01T03:22:51.788Z,12.70
2019-06-01T03:27:56.940Z,12.60
2019-06-01T03:32:58.326Z,12.60
2019-06-01T03:38:00.838Z,12.60
2019-06-01T03:43:04.412Z,12.50
2019-06-01T03:48:08.703Z,12.50
2019-06-01T03:53:12.388Z,12.50
2019-06-01T03:58:13.900Z,12.50
2019-06-01T04:03:15.393Z,12.50
2019-06-01T04:08:17.488Z,12.50
2019-06-01T04:13:19.126Z,12.50
2019-06-01T04:18:21.103Z,12.50
2019-06-01T04:23:24.361Z,12.50
2019-06-01T04:28:25.611Z,12.60
2019-06-01T04:33:26.942Z,12.60
2019-06-01T04:38:28.609Z,12.70
2019-06-01T04:43:30.322Z,12.80
2019-06-01T04:48:32.042Z,12.90
2019-06-01T04:53:33.434Z,13.00
2019-06-01T04:58:34.966Z,13.20
2019-06-01T05:03:37.015Z,13.30
2019-06-01T05:08:38.277Z,13.50
2019-06-01T05:13:41.488Z,13.70
2019-06-01T05:18:43.110Z,13.90
2019-06-01T05:23:44.371Z,14.10
2019-06-01T05:28:46.107Z,14.40
2019-06-01T05:33:47.441Z,14.60
2019-06-01T05:38:50.750Z,14.90
2019-06-01T05:43:52.153Z,15.10
2019-06-01T05:48:53.508Z,15.30
2019-06-01T05:53:55.353Z,15.50
2019-06-01T05:58:56.811Z,15.80
2019-06-01T06:04:01.488Z,16.00
2019-06-01T06:09:07.084Z,16.30
2019-06-01T06:14:08.605Z,16.50
2019-06-01T06:19:10.294Z,16.70
2019-06-01T06:24:12.196Z,16.90
2019-06-01T06:29:14.666Z,17.20
2019-06-01T06:34:17.457Z,17.40
2019-06-01T06:39:19.936Z,17.60
2019-06-01T06:44:22.588Z,17.70
2019-06-01T06:49:25.323Z,17.90
2019-06-01T06:54:26.765Z,18.10
2019-06-01T06:59:28.226Z,18.30
2019-06-01T07:04:29.547Z,18.50
2019-06-01T07:09:35.437Z,18.70
2019-06-01T07:14:36.848Z,19.00
2019-06-01T07:19:38.237Z,19.30
2019-06-01T07:24:39.537Z,19.50
2019-06-01T07:29:40.829Z,19.60
2019-06-01T07:34:43.028Z,19.70
2019-06-01T07:39:44.720Z,19.90
2019-06-01T07:44:46.077Z,20.10
2019-06-01T07:49:47.602Z,20.20
2019-06-01T07:54:48.898Z,20.40
2019-06-01T07:59:50.675Z,20.60
2019-06-01T08:04:54.360Z,20.80
2019-06-01T08:09:55.180Z,21.00
2019-06-01T08:14:56.473Z,21.20
2019-06-01T08:19:57.808Z,21.40
2019-06-01T08:24:59.055Z,21.80
2019-06-01T08:30:00.401Z,22.00
2019-06-01T08:35:08.752Z,22.20
2019-06-01T08:40:06.799Z,22.50
2019-06-01T08:45:08.780Z,22.70
2019-06-01T08:50:11.017Z,22.80
2019-06-01T08:55:12.683Z,22.90
2019-06-01T09:00:14.985Z,23.00
2019-06-01T09:05:24.364Z,23.10
2019-06-01T09:10:19.648Z,23.30
2019-06-01T09:15:21.018Z,23.50
2019-06-01T09:20:22.328Z,23.60
2019-06-01T09:25:23.726Z,23.80
2019-06-01T09:30:27.950Z,23.90
2019-06-01T09:35:47.746Z,24.10
2019-06-01T09:40:33.504Z,24.20
2019-06-01T09:45:36.292Z,24.40
2019-06-01T09:50:39.706Z,24.60
2019-06-01T09:55:44.098Z,24.80
2019-06-01T10:00:49.278Z,25.00
2019-06-01T10:06:01.320Z,25.10
2019-06-01T10:10:54.290Z,25.20
2019-06-01T10:15:55.560Z,25.20
2019-06-01T10:20:56.874Z,25.30
2019-06-01T10:25:58.141Z,25.40
2019-06-01T10:30:59.410Z,25.40
2019-06-01T10:36:18.643Z,25.40
2019-06-01T10:41:04.545Z,25.40
2019-06-01T10:46:05.853Z,25.40
2019-06-01T10:51:07.137Z,25.40
2019-06-01T10:56:08.415Z,25.40
2019-06-01T11:01:09.843Z,25.40
2019-06-01T11:06:12.396Z,25.40
2019-06-01T11:11:13.740Z,25.40
2019-06-01T11:16:15.060Z,25.50
2019-06-01T11:21:16.341Z,25.50
2019-06-01T11:26:17.621Z,25.50
2019-06-01T11:31:18.910Z,25.50
2019-06-01T11:36:20.235Z,25.50
2019-06-01T11:41:21.709Z,25.50
2019-06-01T11:46:24.930Z,25.60
2019-06-01T11:51:26.237Z,25.70
2019-06-01T11:56:27.481Z,25.70
2019-06-01T12:01:28.783Z,25.70
2019-06-01T12:12:08.235Z,25.90
2019-06-01T12:17:09.570Z,26.10
2019-06-01T12:22:10.880Z,26.20
2019-06-01T12:27:12.191Z,26.40
2019-06-01T12:32:15.370Z,26.50
2019-06-01T12:37:36.106Z,26.70
2019-06-01T12:42:21.895Z,26.80
2019-06-01T12:47:23.203Z,27.00
2019-06-01T12:52:24.833Z,27.00
2019-06-01T12:57:26.421Z,27.00
2019-06-01T13:02:27.878Z,27.00
2019-06-01T13:07:29.210Z,27.00
2019-06-01T13:12:30.639Z,27.00
2019-06-01T13:17:32.277Z,27.00
2019-06-01T13:22:34.133Z,27.00
2019-06-01T13:27:35.913Z,26.90
2019-06-01T13:32:37.321Z,26.90
2019-06-01T13:37:39.331Z,27.00
2019-06-01T13:42:42.951Z,27.10
2019-06-01T13:47:45.386Z,27.20
2019-06-01T13:52:48.194Z,27.20
2019-06-01T13:57:50.438Z,27.30
2019-06-01T14:02:55.877Z,27.30
2019-06-01T14:07:59.592Z,27.40
2019-06-01T14:13:05.177Z,27.50
2019-06-01T14:18:07.824Z,27.60
2019-06-01T14:23:12.325Z,27.60
2019-06-01T14:28:13.616Z,27.50
2019-06-01T14:33:17.220Z,27.50
2019-06-01T14:38:18.511Z,27.50
2019-06-01T14:43:19.816Z,27.60
2019-06-01T14:48:23.150Z,27.60
2019-06-01T14:53:27.731Z,27.70
2019-06-01T14:58:29.046Z,27.60
2019-06-01T15:03:30.361Z,27.50
2019-06-01T15:08:31.630Z,27.40
2019-06-01T15:13:32.947Z,27.30
2019-06-01T15:18:34.548Z,27.30
2019-06-01T15:23:35.845Z,27.40
2019-06-01T15:28:37.304Z,27.50
2019-06-01T15:33:38.563Z,27.50
2019-06-01T15:38:40.115Z,27.40
2019-06-01T15:43:41.614Z,27.50
2019-06-01T15:48:46.759Z,27.60
2019-06-01T15:53:48.234Z,27.50
2019-06-01T15:58:53.601Z,27.60
2019-06-01T16:03:53.225Z,27.50
2019-06-01T16:08:55.247Z,27.40
2019-06-01T16:13:57.652Z,27.30
2019-06-01T16:19:04.063Z,27.40
2019-06-01T16:24:05.022Z,27.40
2019-06-01T16:29:12.133Z,27.20
2019-06-01T16:39:35.000Z,27.00
2019-06-01T16:44:38.578Z,26.90
2019-06-01T16:49:42.600Z,26.80
2019-06-01T16:54:46.832Z,26.70
2019-06-01T16:59:48.537Z,26.70
2019-06-01T17:04:51.693Z,26.60
2019-06-01T17:09:56.649Z,26.40
2019-06-01T17:14:58.887Z,26.40
2019-06-01T17:20:01.155Z,26.30
2019-06-01T17:25:05.854Z,26.20
2019-06-01T17:30:12.137Z,26.20
2019-06-01T17:35:13.854Z,26.10
2019-06-01T17:40:18.218Z,26.00
2019-06-01T17:45:21.630Z,25.90
2019-06-01T17:50:23.418Z,25.80
2019-06-01T17:55:30.555Z,25.80
2019-06-01T18:00:32.129Z,25.70
2019-06-01T18:05:34.856Z,25.60
2019-06-01T18:10:52.720Z,25.60
2019-06-01T18:15:42.060Z,25.40
2019-06-01T18:20:43.568Z,25.40
2019-06-01T18:25:45.173Z,25.40
2019-06-01T18:30:49.185Z,25.30
2019-06-01T18:35:50.771Z,25.30
2019-06-01T18:41:06.496Z,25.20
2019-06-01T18:46:08.274Z,25.20
2019-06-01T18:51:10.223Z,25.00
2019-06-01T18:56:12.414Z,24.90
2019-06-01T19:01:14.794Z,24.70
2019-06-01T19:06:16.201Z,24.50
2019-06-01T19:11:34.748Z,24.30
2019-06-01T19:16:33.686Z,24.20
2019-06-01T19:21:35.633Z,24.00
2019-06-01T19:26:37.880Z,23.80
2019-06-01T19:31:39.726Z,23.70
2019-06-01T19:36:44.030Z,23.60
2019-06-01T19:41:46.039Z,23.40
2019-06-01T19:46:47.398Z,23.30
2019-06-01T19:51:48.669Z,23.10
2019-06-01T19:56:50.186Z,22.90
2019-06-01T20:01:51.463Z,22.80
2019-06-01T20:06:52.846Z,22.70
2019-06-01T20:12:02.015Z,22.50
2019-06-01T20:16:57.519Z,22.40
2019-06-01T20:22:17.312Z,22.30
2019-06-01T20:27:19.537Z,22.20
2019-06-01T20:32:22.184Z,22.10
2019-06-01T20:37:24.239Z,22.00
2019-06-01T20:42:31.733Z,21.90
2019-06-01T20:47:29.747Z,21.80
2019-06-01T20:52:31.270Z,21.70
2019-06-01T20:57:32.597Z,21.60
2019-06-01T21:02:33.884Z,21.50
2019-06-01T21:07:37.220Z,21.40
2019-06-01T21:12:46.265Z,21.30
2019-06-01T21:17:42.173Z,21.20
2019-06-01T21:22:43.841Z,21.20
2019-06-01T21:27:45.900Z,21.10
2019-06-01T21:32:47.275Z,21.00
2019-06-01T21:37:48.870Z,20.90
2019-06-01T21:43:02.772Z,20.80
2019-06-01T21:47:53.737Z,20.70
2019-06-01T21:52:55.060Z,20.60
2019-06-01T21:57:56.327Z,20.50
2019-06-01T22:02:57.678Z,20.30
2019-06-01T22:08:00.871Z,20.30
2019-06-01T22:13:17.517Z,20.20
2019-06-01T22:18:05.881Z,20.10
2019-06-01T22:23:11.480Z,20.00
2019-06-01T22:28:11.153Z,19.90
2019-06-01T22:33:12.481Z,19.80
2019-06-01T22:38:13.809Z,19.70
2019-06-01T22:43:15.096Z,19.60
2019-06-01T22:48:20.437Z,19.50
2019-06-01T22:53:22.495Z,19.40
2019-06-01T22:58:27.396Z,19.40
2019-06-01T23:03:30.404Z,19.30
2019-06-01T23:08:31.982Z,19.30
2019-06-01T23:13:34.113Z,19.20
2019-06-01T23:18:35.377Z,19.20
2019-06-01T23:23:36.675Z,19.20
2019-06-01T23:28:38.881Z,19.10
2019-06-01T23:33:41.653Z,19.10
2019-06-01T23:38:42.896Z,19.20
2019-06-01T23:43:45.682Z,19.20
2019-06-01T23:48:46.962Z,19.30
2019-06-01T23:53:48.331Z,19.40
2019-06-01T23:58:49.651Z,19.40
